createdAt,value
2023-01-11T00:02:07.616Z,21.90
2023-01-11T00:04:36.737Z,18.50
2023-01-11T00:07:07.545Z,20.88
2023-01-11T00:09:36.551Z,18.63
2023-01-11T00:12:06.181Z,25.08
2023-01-11T00:14:35.274Z,23.88
2023-01-11T00:17:04.694Z,25.25
2023-01-11T00:19:33.899Z,18.08
2023-01-11T00:22:03.260Z,20.88
2023-01-11T00:24:33.933Z,22.50
2023-01-11T00:27:03.348Z,20.00
2023-01-11T00:29:33.083Z,15.52
2023-01-11T00:32:02.434Z,18.73
2023-01-11T00:34:31.732Z,18.50
2023-01-11T00:37:01.189Z,27.70
2023-01-11T00:39:30.505Z,20.67
2023-01-11T00:42:18.809Z,21.17
2023-01-11T00:45:05.723Z,28.42
2023-01-11T00:47:52.566Z,28.00
2023-01-11T00:50:21.654Z,21.48
2023-01-11T00:52:51.200Z,28.25
2023-01-11T00:55:20.337Z,33.72
2023-01-11T00:57:51.172Z,36.38
2023-01-11T01:00:22.600Z,49.33
2023-01-11T01:02:52.425Z,51.08
2023-01-11T01:05:21.660Z,71.03
2023-01-11T01:07:51.309Z,57.85
2023-01-11T01:10:21.815Z,59.22
2023-01-11T01:13:09.893Z,65.85
2023-01-11T01:15:39.075Z,56.38
2023-01-11T01:18:08.546Z,61.28
2023-01-11T01:20:37.863Z,56.97
2023-01-11T01:23:07.263Z,55.85
2023-01-11T01:25:38.715Z,51.03
2023-01-11T01:28:09.529Z,64.72
2023-01-11T01:30:39.942Z,57.13
2023-01-11T01:33:09.341Z,50.92
2023-01-11T01:35:39.771Z,57.67
2023-01-11T01:38:09.198Z,52.55
2023-01-11T01:40:43.771Z,48.35
2023-01-11T01:43:16.225Z,50.93
2023-01-11T01:45:45.570Z,53.92
2023-01-11T01:48:19.677Z,53.60
2023-01-11T01:50:54.288Z,52.83
2023-01-11T01:53:29.330Z,48.15
2023-01-11T01:56:01.751Z,49.77
2023-01-11T01:58:37.896Z,42.85
2023-01-11T02:01:21.955Z,56.95
2023-01-11T02:03:53.067Z,46.47
2023-01-11T02:06:24.174Z,59.83
2023-01-11T02:08:58.013Z,47.83
2023-01-11T02:11:32.100Z,59.53
2023-01-11T02:14:05.481Z,51.03
2023-01-11T02:16:34.861Z,52.63
2023-01-11T02:19:04.940Z,55.85
2023-01-11T02:21:47.505Z,56.38
2023-01-11T02:24:44.278Z,58.55
2023-01-11T02:27:34.864Z,47.78
2023-01-11T02:30:22.627Z,53.72
2023-01-11T02:33:03.827Z,55.63
2023-01-11T02:35:42.675Z,52.67
2023-01-11T02:38:22.438Z,42.50
2023-01-11T02:40:57.472Z,44.63
2023-01-11T02:43:49.502Z,41.03
2023-01-11T02:46:29.437Z,44.20
2023-01-11T02:49:09.911Z,41.10
2023-01-11T02:51:44.504Z,33.22
2023-01-11T02:54:17.348Z,43.20
2023-01-11T02:56:50.096Z,47.05
2023-01-11T02:59:23.371Z,41.03
2023-01-11T03:01:55.983Z,35.05
2023-01-11T03:04:27.572Z,43.72
2023-01-11T03:07:12.291Z,34.47
2023-01-11T03:09:53.458Z,39.03
2023-01-11T03:12:55.170Z,36.28
2023-01-11T03:15:55.631Z,43.90
2023-01-11T03:18:40.317Z,42.00
2023-01-11T03:21:41.693Z,36.47
2023-01-11T03:24:21.635Z,39.85
2023-01-11T03:27:02.096Z,45.80
2023-01-11T03:29:37.360Z,42.10
2023-01-11T03:36:35.407Z,37.08
2023-01-11T03:39:13.746Z,33.90
2023-01-11T03:41:44.868Z,40.22
2023-01-11T03:44:16.402Z,37.10
2023-01-11T03:46:48.312Z,35.13
2023-01-11T03:49:22.278Z,38.67
2023-01-11T03:51:55.333Z,38.17
2023-01-11T03:54:27.732Z,33.03
2023-01-11T03:57:04.641Z,36.08
2023-01-11T03:59:34.675Z,44.22
2023-01-11T04:02:04.753Z,35.80
2023-01-11T04:04:33.849Z,29.40
2023-01-11T04:07:04.668Z,37.60
2023-01-11T04:09:33.892Z,40.72
2023-01-11T04:12:03.410Z,41.38
2023-01-11T04:14:32.524Z,35.33
2023-01-11T04:17:01.901Z,33.80
2023-01-11T04:19:31.240Z,35.75
2023-01-11T04:22:00.705Z,33.13
2023-01-11T04:24:31.254Z,46.00
2023-01-11T04:27:00.599Z,42.72
2023-01-11T04:29:29.832Z,37.33
2023-01-11T04:31:59.204Z,35.45
2023-01-11T04:34:28.406Z,35.55
2023-01-11T04:36:58.092Z,34.13
2023-01-11T04:39:27.251Z,30.48
2023-01-11T04:42:15.628Z,32.33
2023-01-11T04:44:44.842Z,28.50
2023-01-11T04:47:14.203Z,28.38
2023-01-11T04:49:43.307Z,31.98
2023-01-11T04:52:13.846Z,33.30
2023-01-11T04:54:43.207Z,35.65
2023-01-11T04:57:16.211Z,33.17
2023-01-11T04:59:46.824Z,33.70
2023-01-11T05:02:16.509Z,29.77
2023-01-11T05:04:46.164Z,29.55
2023-01-11T05:07:15.639Z,30.10
2023-01-11T05:09:44.860Z,31.60
2023-01-11T05:12:15.719Z,29.20
2023-01-11T05:14:44.831Z,29.30
2023-01-11T05:17:16.113Z,35.72
2023-01-11T05:19:45.396Z,35.55
2023-01-11T05:22:14.887Z,34.75
2023-01-11T05:24:44.020Z,35.17
2023-01-11T05:27:14.837Z,33.70
2023-01-11T05:29:45.403Z,28.10
2023-01-11T05:32:15.185Z,31.58
2023-01-11T05:34:44.233Z,28.70
2023-01-11T05:37:13.627Z,30.55
2023-01-11T05:39:42.733Z,26.95
2023-01-11T05:42:12.100Z,29.33
2023-01-11T05:44:59.936Z,24.95
2023-01-11T05:47:29.402Z,28.30
2023-01-11T05:49:58.535Z,31.10
2023-01-11T05:52:27.943Z,32.42
2023-01-11T05:54:58.557Z,31.83
2023-01-11T05:57:28.034Z,29.65
2023-01-11T05:59:58.511Z,30.60
2023-01-11T06:02:28.061Z,24.80
2023-01-11T06:04:57.271Z,29.33
2023-01-11T06:07:26.725Z,30.88
2023-01-11T06:09:55.765Z,26.08
2023-01-11T06:12:25.240Z,29.17
2023-01-11T06:14:54.327Z,28.45
2023-01-11T06:17:25.139Z,32.25
2023-01-11T06:19:54.215Z,28.10
2023-01-11T06:22:23.831Z,24.65
2023-01-11T06:24:52.950Z,25.35
2023-01-11T06:27:22.396Z,26.80
2023-01-11T06:29:51.438Z,19.02
2023-01-11T06:32:20.893Z,29.27
2023-01-11T06:34:51.497Z,28.75
2023-01-11T06:37:20.880Z,28.20
2023-01-11T06:39:49.993Z,28.05
2023-01-11T06:42:19.376Z,31.52
2023-01-11T06:44:48.576Z,19.67
2023-01-11T06:47:17.989Z,25.30
2023-01-11T06:49:47.059Z,24.50
2023-01-11T06:52:17.880Z,20.73
2023-01-11T06:54:46.970Z,22.75
2023-01-11T06:57:16.372Z,22.83
2023-01-11T06:59:47.963Z,20.13
2023-01-11T07:02:17.529Z,14.45
2023-01-11T07:04:46.660Z,18.65
2023-01-11T07:07:17.511Z,18.35
2023-01-11T07:09:46.585Z,20.38
2023-01-11T07:12:15.932Z,17.70
2023-01-11T07:14:44.985Z,14.75
2023-01-11T07:17:14.419Z,18.25
2023-01-11T07:19:43.542Z,14.73
2023-01-11T07:22:13.075Z,15.35
2023-01-11T07:24:43.597Z,17.23
2023-01-11T07:27:13.108Z,19.10
2023-01-11T07:29:42.303Z,15.52
2023-01-11T07:32:11.795Z,16.17
2023-01-11T07:34:41.012Z,15.73
2023-01-11T07:37:28.166Z,21.83
2023-01-11T07:39:59.804Z,25.70
2023-01-11T07:42:46.693Z,24.60
2023-01-11T07:45:16.449Z,18.25
2023-01-11T07:47:45.996Z,20.35
2023-01-11T07:50:15.231Z,16.75
2023-01-11T07:52:48.975Z,17.05
2023-01-11T07:55:19.447Z,14.07
2023-01-11T07:57:48.925Z,15.30
2023-01-11T08:00:19.206Z,16.25
2023-01-11T08:02:52.734Z,20.15
2023-01-11T08:05:23.183Z,18.48
2023-01-11T08:07:52.769Z,15.88
2023-01-11T08:10:23.439Z,18.17
2023-01-11T08:13:10.452Z,24.15
2023-01-11T08:15:42.477Z,17.48
2023-01-11T08:18:13.257Z,19.35
2023-01-11T08:20:42.591Z,19.90
2023-01-11T08:23:12.480Z,23.35
2023-01-11T08:25:42.882Z,20.95
2023-01-11T08:28:13.185Z,24.90
2023-01-11T08:30:42.720Z,24.08
2023-01-11T08:33:13.418Z,23.17
2023-01-11T08:35:42.665Z,25.33
2023-01-11T08:38:12.442Z,24.90
2023-01-11T08:40:43.081Z,18.30
2023-01-11T08:43:12.400Z,23.60
2023-01-11T08:45:41.625Z,17.52
2023-01-11T08:48:12.207Z,21.08
2023-01-11T08:50:41.497Z,19.88
2023-01-11T08:53:12.223Z,19.92
2023-01-11T08:55:44.660Z,16.60
2023-01-11T08:58:14.015Z,16.08
2023-01-11T09:00:43.174Z,23.25
2023-01-11T09:03:13.392Z,12.68
2023-01-11T09:05:43.347Z,15.70
2023-01-11T09:08:13.215Z,24.48
2023-01-11T09:10:43.684Z,19.35
2023-01-11T09:13:13.196Z,25.98
2023-01-11T09:15:42.601Z,19.23
2023-01-11T09:18:11.950Z,17.60
2023-01-11T09:20:41.101Z,14.82
2023-01-11T09:23:10.574Z,16.30
2023-01-11T09:25:39.736Z,16.60
2023-01-11T09:28:10.533Z,20.48
2023-01-11T09:30:39.634Z,15.68
2023-01-11T09:33:09.104Z,14.50
2023-01-11T09:35:41.899Z,15.82
2023-01-11T09:38:11.301Z,14.95
2023-01-11T09:40:51.249Z,14.90
2023-01-11T09:43:27.364Z,14.05
2023-01-11T09:46:00.644Z,13.57
2023-01-11T09:48:41.060Z,16.60
2023-01-11T09:51:13.330Z,17.20
2023-01-11T09:53:46.492Z,15.30
2023-01-11T09:56:24.561Z,13.15
2023-01-11T09:59:06.602Z,14.68
2023-01-11T10:01:45.694Z,17.58
2023-01-11T10:04:33.739Z,14.23
2023-01-11T10:07:23.650Z,12.25
2023-01-11T10:18:31.014Z,12.95
2023-01-11T10:19:31.519Z,13.55
2023-01-11T10:21:56.452Z,13.60
2023-01-11T10:24:30.149Z,13.60
2023-01-11T10:27:05.894Z,12.07
2023-01-11T10:29:49.958Z,15.55
2023-01-11T10:32:53.144Z,14.05
2023-01-11T10:35:45.866Z,21.75
2023-01-11T10:38:43.714Z,18.08
2023-01-11T10:41:26.503Z,16.90
2023-01-11T10:44:11.826Z,12.48
2023-01-11T10:46:46.229Z,13.63
2023-01-11T10:49:41.202Z,17.97
2023-01-11T10:52:23.731Z,17.15
2023-01-11T10:54:56.091Z,13.55
2023-01-11T10:58:01.460Z,11.55
2023-01-11T11:00:43.196Z,16.35
2023-01-11T11:03:35.880Z,15.40
2023-01-11T11:06:14.529Z,14.60
2023-01-11T11:08:50.826Z,12.07
2023-01-11T11:11:28.411Z,16.90
2023-01-11T11:14:03.731Z,13.07
2023-01-11T11:19:22.207Z,18.15
2023-01-11T11:21:53.906Z,19.70
2023-01-11T11:24:32.433Z,11.80
2023-01-11T11:27:08.849Z,14.75
2023-01-11T11:29:44.643Z,16.08
2023-01-11T11:32:22.271Z,13.63
2023-01-11T11:34:53.112Z,12.60
2023-01-11T11:37:26.966Z,15.88
2023-01-11T11:39:57.915Z,13.80
2023-01-11T11:42:28.078Z,13.75
2023-01-11T11:45:18.215Z,13.98
2023-01-11T11:48:03.662Z,15.57
2023-01-11T11:50:46.035Z,20.48
2023-01-11T11:53:33.755Z,14.02
2023-01-11T11:56:10.061Z,11.70
2023-01-11T11:58:43.826Z,15.75
2023-01-11T12:01:27.453Z,14.07
2023-01-11T12:04:00.521Z,15.05
2023-01-11T12:06:31.257Z,21.95
2023-01-11T12:09:05.266Z,13.73
2023-01-11T12:11:37.064Z,16.85
2023-01-11T12:14:18.211Z,15.75
2023-01-11T12:16:48.297Z,16.98
2023-01-11T12:19:28.992Z,14.85
2023-01-11T12:22:13.125Z,17.05
2023-01-11T12:24:44.190Z,16.55
2023-01-11T12:27:28.688Z,13.25
2023-01-11T12:30:21.394Z,13.73
2023-01-11T12:33:14.256Z,11.90
2023-01-11T12:35:53.002Z,13.00
2023-01-11T12:38:41.184Z,14.52
2023-01-11T12:41:50.315Z,16.48
2023-01-11T12:44:43.809Z,12.05
2023-01-11T12:47:40.886Z,12.80
2023-01-11T12:50:18.501Z,10.55
2023-01-11T12:53:03.720Z,11.80
2023-01-11T12:55:52.043Z,18.27
2023-01-11T12:58:34.141Z,12.90
2023-01-11T13:01:29.167Z,17.85
2023-01-11T13:04:31.005Z,17.33
2023-01-11T13:07:10.354Z,18.08
2023-01-11T13:09:59.440Z,13.10
2023-01-11T13:12:35.035Z,14.60
2023-01-11T13:15:26.089Z,14.80
2023-01-11T13:18:01.533Z,18.95
2023-01-11T13:23:33.145Z,20.90
2023-01-11T13:26:18.287Z,17.00
2023-01-11T13:28:52.115Z,16.05
2023-01-11T13:31:24.252Z,14.88
2023-01-11T13:34:01.545Z,12.95
2023-01-11T13:36:38.786Z,13.57
2023-01-11T13:39:15.399Z,16.38
2023-01-11T13:41:49.518Z,19.02
2023-01-11T13:44:24.929Z,14.48
2023-01-11T13:49:54.006Z,15.45
2023-01-11T13:52:34.238Z,17.10
2023-01-11T13:55:14.352Z,14.20
2023-01-11T13:57:57.113Z,12.23
2023-01-11T14:00:31.960Z,17.55
2023-01-11T14:03:13.834Z,20.35
2023-01-11T14:05:52.482Z,14.20
2023-01-11T14:08:52.911Z,18.02
2023-01-11T14:11:29.221Z,12.30
2023-01-11T14:14:20.616Z,16.83
2023-01-11T14:17:20.150Z,19.25
2023-01-11T14:19:57.183Z,15.05
2023-01-11T14:22:35.954Z,22.90
2023-01-11T14:25:14.874Z,15.88
2023-01-11T14:28:01.424Z,12.02
2023-01-11T14:30:47.017Z,13.50
2023-01-11T14:33:49.056Z,13.48
2023-01-11T14:36:49.450Z,16.88
2023-01-11T14:39:42.107Z,14.23
2023-01-11T14:42:44.506Z,15.55
2023-01-11T14:45:41.940Z,18.83
2023-01-11T14:48:25.241Z,14.40
2023-01-11T14:51:25.941Z,18.02
2023-01-11T14:54:04.561Z,19.63
2023-01-11T14:56:47.594Z,20.02
2023-01-11T14:59:47.150Z,17.60
2023-01-11T15:02:30.836Z,13.85
2023-01-11T15:05:34.856Z,15.35
2023-01-11T15:08:23.494Z,14.90
2023-01-11T15:10:58.806Z,12.85
2023-01-11T15:13:32.459Z,14.70
2023-01-11T15:16:36.344Z,15.80
2023-01-11T15:19:09.065Z,15.63
2023-01-11T15:21:47.618Z,14.25
2023-01-11T15:24:26.227Z,15.20
2023-01-11T15:26:58.439Z,15.43
2023-01-11T15:29:31.101Z,14.80
2023-01-11T15:32:17.783Z,17.60
2023-01-11T15:34:49.239Z,16.75
2023-01-11T15:37:51.450Z,15.55
2023-01-11T15:40:24.050Z,12.00
2023-01-11T15:43:41.435Z,15.05
2023-01-11T15:46:55.918Z,12.88
2023-01-11T15:50:04.413Z,15.95
2023-01-11T15:53:15.705Z,16.67
2023-01-11T15:56:17.417Z,13.10
2023-01-11T15:59:15.206Z,18.40
2023-01-11T16:02:11.732Z,18.60
2023-01-11T16:04:45.914Z,14.70
2023-01-11T16:07:23.654Z,19.55
2023-01-11T16:10:11.890Z,13.88
2023-01-11T16:13:04.398Z,18.67
2023-01-11T16:15:49.408Z,14.73
2023-01-11T16:18:23.426Z,15.07
2023-01-11T16:21:01.636Z,17.30
2023-01-11T16:23:32.751Z,14.20
2023-01-11T16:26:03.108Z,19.15
2023-01-11T16:28:32.574Z,17.65
2023-01-11T16:31:03.830Z,15.30
2023-01-11T16:33:35.999Z,17.65
2023-01-11T16:36:06.730Z,17.25
2023-01-11T16:38:53.456Z,18.30
2023-01-11T16:41:24.222Z,20.67
2023-01-11T16:44:00.462Z,20.65
2023-01-11T16:47:08.385Z,19.75
2023-01-11T16:49:39.912Z,19.75
2023-01-11T16:52:38.975Z,19.55
2023-01-11T16:55:36.622Z,23.35
2023-01-11T16:58:08.542Z,22.75
2023-01-11T17:00:40.000Z,16.52
2023-01-11T17:03:31.232Z,19.20
2023-01-11T17:06:18.619Z,23.02
2023-01-11T17:08:52.182Z,17.70
2023-01-11T17:11:36.510Z,16.90
2023-01-11T17:14:44.111Z,20.75
2023-01-11T17:17:15.023Z,20.33
2023-01-11T17:19:46.969Z,20.23
2023-01-11T17:22:22.441Z,22.10
2023-01-11T17:24:55.921Z,20.05
2023-01-11T17:27:29.200Z,17.05
2023-01-11T17:30:00.169Z,14.98
2023-01-11T17:32:37.466Z,20.35
2023-01-11T17:35:15.126Z,18.13
2023-01-11T17:37:47.462Z,16.67
2023-01-11T17:40:24.759Z,16.58
2023-01-11T17:43:22.111Z,20.13
2023-01-11T17:45:55.136Z,12.30
2023-01-11T17:48:27.012Z,22.48
2023-01-11T17:50:58.300Z,19.48
2023-01-11T17:53:32.300Z,16.23
2023-01-11T17:56:03.523Z,18.10
2023-01-11T17:58:34.384Z,16.15
2023-01-11T18:01:21.506Z,15.52
2023-01-11T18:03:53.531Z,15.88
2023-01-11T18:06:32.475Z,16.00
2023-01-11T18:09:05.230Z,17.30
2023-01-11T18:11:36.993Z,16.15
2023-01-11T18:14:09.376Z,17.60
2023-01-11T18:16:55.713Z,16.58
2023-01-11T18:19:32.445Z,15.73
2023-01-11T18:22:02.196Z,14.77
2023-01-11T18:24:45.251Z,19.45
2023-01-11T18:27:29.544Z,18.48
2023-01-11T18:30:02.832Z,20.80
2023-01-11T18:32:39.112Z,19.98
2023-01-11T18:35:18.940Z,18.00
2023-01-11T18:37:48.889Z,18.95
2023-01-11T18:40:21.520Z,16.73
2023-01-11T18:42:53.444Z,19.65
2023-01-11T18:45:25.124Z,21.60
2023-01-11T18:47:54.419Z,19.40
2023-01-11T18:50:24.494Z,15.95
2023-01-11T18:52:53.732Z,20.00
2023-01-11T18:55:24.454Z,21.27
2023-01-11T18:57:53.515Z,20.65
2023-01-11T19:00:25.448Z,22.90
2023-01-11T19:02:54.779Z,18.98
2023-01-11T19:05:24.508Z,18.50
2023-01-11T19:07:53.956Z,29.27
2023-01-11T19:10:25.666Z,20.83
2023-01-11T19:12:57.390Z,22.25
2023-01-11T19:15:27.096Z,21.63
2023-01-11T19:17:56.339Z,16.23
2023-01-11T19:20:25.726Z,23.63
2023-01-11T19:22:55.066Z,19.98
2023-01-11T19:25:25.787Z,21.25
2023-01-11T19:27:55.139Z,22.73
2023-01-11T19:30:24.557Z,19.73
2023-01-11T19:32:54.056Z,19.13
2023-01-11T19:35:24.796Z,29.00
2023-01-11T19:37:54.146Z,24.85
2023-01-11T19:40:27.318Z,25.90
2023-01-11T19:42:56.618Z,26.52
2023-01-11T19:45:26.038Z,18.17
2023-01-11T19:47:55.169Z,16.25
2023-01-11T19:50:24.854Z,25.02
2023-01-11T19:52:54.193Z,25.20
2023-01-11T19:55:25.291Z,19.73
2023-01-11T19:57:54.581Z,26.05
2023-01-11T20:00:24.393Z,29.15
2023-01-11T20:02:53.731Z,21.85
2023-01-11T20:05:23.412Z,21.45
2023-01-11T20:07:53.970Z,23.95
2023-01-11T20:10:23.437Z,24.35
2023-01-11T20:12:54.006Z,20.05
2023-01-11T20:15:23.516Z,24.42
2023-01-11T20:17:52.644Z,22.40
2023-01-11T20:20:22.090Z,25.98
2023-01-11T20:22:51.330Z,19.90
2023-01-11T20:25:21.048Z,26.73
2023-01-11T20:27:50.285Z,17.70
2023-01-11T20:30:21.467Z,20.75
2023-01-11T20:32:50.566Z,21.50
2023-01-11T20:35:20.036Z,20.63
2023-01-11T20:37:49.212Z,19.92
2023-01-11T20:40:19.109Z,21.70
2023-01-11T20:42:48.341Z,22.00
2023-01-11T20:45:18.232Z,19.17
2023-01-11T20:47:48.737Z,21.75
2023-01-11T20:50:18.288Z,20.23
2023-01-11T20:52:49.426Z,23.38
2023-01-11T20:55:18.809Z,16.95
2023-01-11T20:57:48.477Z,23.42
2023-01-11T21:00:19.015Z,18.05
2023-01-11T21:02:52.010Z,19.73
2023-01-11T21:05:21.583Z,16.77
2023-01-11T21:07:53.522Z,20.08
2023-01-11T21:10:22.997Z,21.70
2023-01-11T21:12:54.284Z,20.08
2023-01-11T21:15:23.932Z,17.25
2023-01-11T21:17:54.573Z,17.63
2023-01-11T21:20:24.283Z,17.33
2023-01-11T21:22:53.554Z,21.40
2023-01-11T21:25:22.959Z,21.85
2023-01-11T21:27:52.107Z,18.30
2023-01-11T21:30:21.780Z,17.48
2023-01-11T21:32:51.149Z,18.50
2023-01-11T21:35:22.091Z,18.80
2023-01-11T21:37:51.380Z,18.65
2023-01-11T21:40:20.986Z,20.27
2023-01-11T21:42:50.116Z,20.25
2023-01-11T21:45:19.523Z,22.95
2023-01-11T21:47:48.681Z,18.35
2023-01-11T21:50:18.578Z,20.90
2023-01-11T21:52:49.210Z,19.58
2023-01-11T21:55:18.625Z,17.23
2023-01-11T21:57:47.739Z,20.17
2023-01-11T22:00:18.048Z,16.63
2023-01-11T22:02:50.506Z,20.27
2023-01-11T22:05:19.911Z,19.15
2023-01-11T22:07:50.434Z,17.60
2023-01-11T22:10:20.250Z,13.60
2023-01-11T22:12:49.428Z,13.70
2023-01-11T22:15:19.422Z,16.08
2023-01-11T22:17:48.540Z,14.90
2023-01-11T22:20:18.398Z,18.77
2023-01-11T22:22:47.531Z,13.60
2023-01-11T22:25:18.427Z,12.85
2023-01-11T22:27:47.601Z,14.65
2023-01-11T22:30:17.724Z,16.13
2023-01-11T22:32:47.986Z,12.32
2023-01-11T22:35:17.533Z,13.52
2023-01-11T22:37:46.557Z,14.40
2023-01-11T22:40:18.071Z,15.55
2023-01-11T22:42:47.446Z,16.65
2023-01-11T22:45:17.093Z,19.70
2023-01-11T22:47:47.439Z,16.30
2023-01-11T22:50:17.492Z,12.02
2023-01-11T22:52:46.546Z,11.68
2023-01-11T22:55:17.611Z,11.23
2023-01-11T22:57:46.744Z,9.52
2023-01-11T23:00:16.513Z,9.00
2023-01-11T23:02:45.644Z,11.02
2023-01-11T23:05:15.317Z,9.63
2023-01-11T23:07:45.507Z,10.57
2023-01-11T23:10:15.098Z,11.15
2023-01-11T23:13:02.851Z,11.15
2023-01-11T23:15:32.257Z,11.23
2023-01-11T23:18:01.350Z,10.82
2023-01-11T23:20:30.795Z,9.68
2023-01-11T23:22:59.871Z,10.55
2023-01-11T23:25:29.342Z,11.38
2023-01-11T23:27:59.968Z,11.77
2023-01-11T23:30:29.416Z,10.10
2023-01-11T23:32:58.581Z,8.35
2023-01-11T23:35:28.082Z,8.30
2023-01-11T23:37:57.343Z,8.35
2023-01-11T23:40:26.983Z,8.93
2023-01-11T23:42:55.080Z,10.20
2023-01-11T23:45:26.055Z,9.63
2023-01-11T23:47:54.229Z,7.85
2023-01-11T23:50:23.869Z,8.70
2023-01-11T23:52:53.101Z,9.77
2023-01-11T23:55:22.659Z,9.02
2023-01-11T23:58:05.630Z,8.25
